createdAt,value
2022-10-10T00:00:10.777Z,5.90
2022-10-10T00:03:12.789Z,5.63
2022-10-10T00:06:15.959Z,5.75
2022-10-10T00:09:17.463Z,5.60
2022-10-10T00:12:18.957Z,5.60
2022-10-10T00:15:20.516Z,6.10
2022-10-10T00:18:22.011Z,6.50
2022-10-10T00:21:23.737Z,6.43
2022-10-10T00:24:25.328Z,6.10
2022-10-10T00:27:26.754Z,5.90
2022-10-10T00:30:28.420Z,6.55
2022-10-10T00:33:29.841Z,5.70
2022-10-10T00:36:31.304Z,6.60
2022-10-10T00:39:32.732Z,6.60
2022-10-10T00:42:34.489Z,6.53
2022-10-10T00:45:35.878Z,6.25
2022-10-10T00:48:41.055Z,6.53
2022-10-10T00:51:44.877Z,6.80
2022-10-10T00:54:46.357Z,6.57
2022-10-10T00:57:48.993Z,6.57
2022-10-10T01:00:50.942Z,6.03
2022-10-10T01:03:56.832Z,6.03
2022-10-10T01:06:59.642Z,6.30
2022-10-10T01:10:07.331Z,6.57
2022-10-10T01:13:27.841Z,6.72
2022-10-10T01:16:43.252Z,6.07
2022-10-10T01:20:22.639Z,5.85
2022-10-10T01:23:48.582Z,6.70
2022-10-10T01:27:07.552Z,6.82
2022-10-10T01:30:12.491Z,6.40
2022-10-10T01:33:18.237Z,6.47
2022-10-10T01:36:25.980Z,6.63
2022-10-10T01:39:40.656Z,5.65
2022-10-10T01:42:50.697Z,6.60
2022-10-10T01:45:53.841Z,7.05
2022-10-10T01:48:58.162Z,6.30
2022-10-10T01:52:27.638Z,6.65
2022-10-10T01:55:44.240Z,6.20
2022-10-10T01:58:55.296Z,6.45
2022-10-10T02:02:02.732Z,5.95
2022-10-10T02:05:29.068Z,6.93
2022-10-10T02:08:42.148Z,6.65
2022-10-10T02:11:44.755Z,6.78
2022-10-10T02:14:50.621Z,6.78
2022-10-10T02:17:53.639Z,6.15
2022-10-10T02:20:55.830Z,6.55
2022-10-10T02:24:03.947Z,5.95
2022-10-10T02:27:11.181Z,5.75
2022-10-10T02:30:14.414Z,6.43
2022-10-10T02:33:32.498Z,6.27
2022-10-10T02:36:34.955Z,5.70
2022-10-10T02:39:41.249Z,5.47
2022-10-10T02:42:45.104Z,5.93
2022-10-10T02:45:46.873Z,6.35
2022-10-10T02:48:48.444Z,6.10
2022-10-10T02:51:50.316Z,6.10
2022-10-10T02:54:51.776Z,6.03
2022-10-10T02:57:53.528Z,6.22
2022-10-10T03:00:55.052Z,5.95
2022-10-10T03:03:56.742Z,6.18
2022-10-10T03:06:58.249Z,6.20
2022-10-10T03:09:59.736Z,6.13
2022-10-10T03:13:01.160Z,6.00
2022-10-10T03:16:03.407Z,6.50
2022-10-10T03:19:08.172Z,6.60
2022-10-10T03:22:10.009Z,6.10
2022-10-10T03:25:11.560Z,6.10
2022-10-10T03:28:13.414Z,6.35
2022-10-10T03:31:14.919Z,6.15
2022-10-10T03:34:16.493Z,6.80
2022-10-10T03:37:17.996Z,6.90
2022-10-10T03:40:19.486Z,6.35
2022-10-10T03:43:20.984Z,7.00
2022-10-10T03:46:22.692Z,6.78
2022-10-10T03:49:24.246Z,7.32
2022-10-10T03:52:25.712Z,6.70
2022-10-10T03:55:27.292Z,6.25
2022-10-10T03:58:28.764Z,6.03
2022-10-10T04:01:30.769Z,6.70
2022-10-10T04:04:32.691Z,6.88
2022-10-10T04:07:34.233Z,6.78
2022-10-10T04:10:35.659Z,7.15
2022-10-10T04:13:37.108Z,6.97
2022-10-10T04:16:38.610Z,7.45
2022-10-10T04:19:40.042Z,8.05
2022-10-10T04:22:42.668Z,8.23
2022-10-10T04:25:44.683Z,7.55
2022-10-10T04:28:46.319Z,7.10
2022-10-10T04:31:47.867Z,7.95
2022-10-10T04:34:49.617Z,7.38
2022-10-10T04:37:51.295Z,7.00
2022-10-10T04:40:52.850Z,7.53
2022-10-10T04:43:54.356Z,7.50
2022-10-10T04:46:56.469Z,7.47
2022-10-10T04:49:57.923Z,8.10
2022-10-10T04:52:59.433Z,7.68
2022-10-10T04:56:00.869Z,8.07
2022-10-10T04:59:02.401Z,7.97
2022-10-10T05:02:04.112Z,8.40
2022-10-10T05:05:06.281Z,8.30
2022-10-10T05:08:07.942Z,7.78
2022-10-10T05:11:09.413Z,8.27
2022-10-10T05:14:10.932Z,7.88
2022-10-10T05:17:12.656Z,7.70
2022-10-10T05:20:14.228Z,7.93
2022-10-10T05:23:16.869Z,7.43
2022-10-10T05:26:20.028Z,7.78
2022-10-10T05:29:21.745Z,9.00
2022-10-10T05:32:23.855Z,8.65
2022-10-10T05:35:25.342Z,7.78
2022-10-10T05:38:26.945Z,9.98
2022-10-10T05:41:28.531Z,10.43
2022-10-10T05:44:30.153Z,10.45
2022-10-10T05:47:31.824Z,9.23
2022-10-10T05:50:38.524Z,8.85
2022-10-10T05:53:40.046Z,9.02
2022-10-10T05:56:41.901Z,7.97
2022-10-10T05:59:43.393Z,8.38
2022-10-10T06:02:44.846Z,9.18
2022-10-10T06:05:49.992Z,8.15
2022-10-10T06:08:52.230Z,7.93
2022-10-10T06:11:53.860Z,7.80
2022-10-10T06:14:55.860Z,7.72
2022-10-10T06:17:57.473Z,8.35
2022-10-10T06:21:03.960Z,8.38
2022-10-10T06:24:06.913Z,7.72
2022-10-10T06:27:08.580Z,9.73
2022-10-10T06:30:10.536Z,8.63
2022-10-10T06:33:12.950Z,8.63
2022-10-10T06:36:15.449Z,9.23
2022-10-10T06:39:17.053Z,8.63
2022-10-10T06:42:18.542Z,9.60
2022-10-10T06:45:20.082Z,8.35
2022-10-10T06:48:21.620Z,8.23
2022-10-10T06:51:23.167Z,7.78
2022-10-10T06:54:24.609Z,7.75
2022-10-10T06:57:26.115Z,8.27
2022-10-10T07:00:27.625Z,8.30
2022-10-10T07:03:30.679Z,11.80
2022-10-10T07:06:34.851Z,9.38
2022-10-10T07:09:36.690Z,8.95
2022-10-10T07:12:52.332Z,9.70
2022-10-10T07:15:54.080Z,8.90
2022-10-10T07:18:55.643Z,9.05
2022-10-10T07:21:57.109Z,9.15
2022-10-10T07:25:00.859Z,9.30
2022-10-10T07:28:02.309Z,9.82
2022-10-10T07:31:06.814Z,8.80
2022-10-10T07:34:08.353Z,9.65
2022-10-10T07:37:09.939Z,8.27
2022-10-10T07:40:11.690Z,8.52
2022-10-10T07:43:13.205Z,7.97
2022-10-10T07:46:18.571Z,8.15
2022-10-10T07:49:20.172Z,8.00
2022-10-10T07:52:21.937Z,7.47
2022-10-10T07:55:23.531Z,8.00
2022-10-10T07:58:25.183Z,7.40
2022-10-10T08:01:26.942Z,8.27
2022-10-10T08:04:28.470Z,6.90
2022-10-10T08:07:30.253Z,7.88
2022-10-10T08:10:31.702Z,8.35
2022-10-10T08:13:33.868Z,8.43
2022-10-10T08:16:35.636Z,8.52
2022-10-10T08:19:37.136Z,23.85
2022-10-10T08:22:38.632Z,35.60
2022-10-10T08:25:40.137Z,15.05
2022-10-10T08:28:42.057Z,6.93
2022-10-10T08:31:43.607Z,6.10
2022-10-10T08:34:45.402Z,5.95
2022-10-10T08:37:46.873Z,6.65
2022-10-10T08:40:53.291Z,5.82
2022-10-10T08:44:10.787Z,5.95
2022-10-10T08:47:18.312Z,5.63
2022-10-10T08:50:32.955Z,5.25
2022-10-10T08:53:46.641Z,4.63
2022-10-10T08:56:50.205Z,4.75
2022-10-10T08:59:55.054Z,4.13
2022-10-10T09:02:58.975Z,4.00
2022-10-10T09:06:15.784Z,3.45
2022-10-10T09:09:24.410Z,4.10
2022-10-10T09:13:07.265Z,3.90
2022-10-10T09:16:45.241Z,3.80
2022-10-10T09:19:57.225Z,4.00
2022-10-10T09:23:21.819Z,3.80
2022-10-10T09:29:41.569Z,4.10
2022-10-10T09:32:48.568Z,4.10
2022-10-10T09:35:53.207Z,3.70
2022-10-10T09:39:00.372Z,3.70
2022-10-10T09:42:05.228Z,3.45
2022-10-10T09:45:17.725Z,3.92
2022-10-10T09:48:22.197Z,4.03
2022-10-10T09:51:23.643Z,3.70
2022-10-10T09:54:25.131Z,3.72
2022-10-10T09:57:32.823Z,3.90
2022-10-10T10:00:36.654Z,3.25
2022-10-10T10:03:38.249Z,3.53
2022-10-10T10:06:44.740Z,4.60
2022-10-10T10:09:57.325Z,3.83
2022-10-10T10:12:58.817Z,3.35
2022-10-10T10:16:02.659Z,3.60
2022-10-10T10:19:04.806Z,3.72
2022-10-10T10:22:45.278Z,3.75
2022-10-10T10:26:06.573Z,3.05
2022-10-10T10:29:29.849Z,3.90
2022-10-10T10:33:06.742Z,4.25
2022-10-10T10:36:21.608Z,3.92
2022-10-10T10:39:39.750Z,3.80
2022-10-10T10:42:51.660Z,3.38
2022-10-10T10:45:56.205Z,3.75
2022-10-10T10:49:02.723Z,3.80
2022-10-10T10:52:29.145Z,4.03
2022-10-10T10:56:11.448Z,3.70
2022-10-10T11:00:16.614Z,4.90
2022-10-10T11:03:34.933Z,3.70
2022-10-10T11:07:19.676Z,4.32
2022-10-10T11:10:38.480Z,3.70
2022-10-10T11:13:42.810Z,3.58
2022-10-10T11:16:55.114Z,3.70
2022-10-10T11:20:03.225Z,3.63
2022-10-10T11:23:15.945Z,4.57
2022-10-10T11:26:25.492Z,4.43
2022-10-10T11:29:35.356Z,4.18
2022-10-10T11:33:05.487Z,3.83
2022-10-10T11:36:16.591Z,3.80
2022-10-10T11:39:30.172Z,4.07
2022-10-10T11:42:45.257Z,4.28
2022-10-10T11:45:54.465Z,4.20
2022-10-10T11:49:00.098Z,4.43
2022-10-10T11:52:33.488Z,4.20
2022-10-10T11:55:47.193Z,4.80
2022-10-10T11:58:56.383Z,3.60
2022-10-10T12:02:01.670Z,4.75
2022-10-10T12:05:07.840Z,4.30
2022-10-10T12:08:18.149Z,3.63
2022-10-10T12:11:25.975Z,4.30
2022-10-10T12:14:31.253Z,5.13
2022-10-10T12:17:36.083Z,4.82
2022-10-10T12:20:37.879Z,4.30
2022-10-10T12:23:41.154Z,3.95
2022-10-10T12:26:54.547Z,4.28
2022-10-10T12:29:55.996Z,5.00
2022-10-10T12:32:57.961Z,4.40
2022-10-10T12:36:18.388Z,4.32
2022-10-10T12:39:19.808Z,4.50
2022-10-10T12:42:39.142Z,4.10
2022-10-10T12:45:40.552Z,4.68
2022-10-10T12:48:44.378Z,5.10
2022-10-10T12:52:03.371Z,4.63
2022-10-10T12:55:09.466Z,5.18
2022-10-10T12:58:26.565Z,4.50
2022-10-10T13:01:34.281Z,4.45
2022-10-10T13:04:35.912Z,4.85
2022-10-10T13:07:38.324Z,4.75
2022-10-10T13:10:39.838Z,4.38
2022-10-10T13:13:50.028Z,4.50
2022-10-10T13:16:51.936Z,4.90
2022-10-10T13:19:54.462Z,4.95
2022-10-10T13:22:56.692Z,4.70
2022-10-10T13:25:59.805Z,4.15
2022-10-10T13:29:12.161Z,4.70
2022-10-10T13:32:17.333Z,5.30
2022-10-10T13:35:24.745Z,4.25
2022-10-10T13:38:26.686Z,4.97
2022-10-10T13:41:28.865Z,4.45
2022-10-10T13:44:46.039Z,5.82
2022-10-10T13:47:55.368Z,4.97
2022-10-10T13:51:07.400Z,4.82
2022-10-10T13:54:42.862Z,4.70
2022-10-10T13:57:44.627Z,5.00
2022-10-10T14:00:55.240Z,4.97
2022-10-10T14:04:02.877Z,5.57
2022-10-10T14:07:18.195Z,4.38
2022-10-10T14:10:25.125Z,4.13
2022-10-10T14:13:27.841Z,4.50
2022-10-10T14:16:32.432Z,4.28
2022-10-10T14:19:34.127Z,4.88
2022-10-10T14:22:35.761Z,4.22
2022-10-10T14:25:39.871Z,5.00
2022-10-10T14:28:41.975Z,5.25
2022-10-10T14:31:45.055Z,4.57
2022-10-10T14:34:47.304Z,6.00
2022-10-10T14:37:48.817Z,4.60
2022-10-10T14:40:51.146Z,4.32
2022-10-10T14:43:52.625Z,4.30
2022-10-10T14:46:54.148Z,4.13
2022-10-10T14:49:57.854Z,4.80
2022-10-10T14:52:59.447Z,5.13
2022-10-10T14:56:00.916Z,4.65
2022-10-10T14:59:02.517Z,4.20
2022-10-10T15:02:04.054Z,5.07
2022-10-10T15:05:06.337Z,4.60
2022-10-10T15:08:08.170Z,5.03
2022-10-10T15:11:15.369Z,4.93
2022-10-10T15:14:16.893Z,5.18
2022-10-10T15:17:18.634Z,4.82
2022-10-10T15:20:23.979Z,5.30
2022-10-10T15:23:26.921Z,5.38
2022-10-10T15:26:28.429Z,5.53
2022-10-10T15:29:29.885Z,4.32
2022-10-10T15:32:31.383Z,5.30
2022-10-10T15:35:50.331Z,4.43
2022-10-10T15:38:55.351Z,4.90
2022-10-10T15:41:57.685Z,4.20
2022-10-10T15:44:59.256Z,5.38
2022-10-10T15:48:00.777Z,5.20
2022-10-10T15:51:07.019Z,4.70
2022-10-10T15:54:08.749Z,4.93
2022-10-10T15:57:10.300Z,4.85
2022-10-10T16:00:12.459Z,4.78
2022-10-10T16:03:14.119Z,5.50
2022-10-10T16:06:18.239Z,6.40
2022-10-10T16:09:28.147Z,5.68
2022-10-10T16:12:30.449Z,4.55
2022-10-10T16:15:32.561Z,4.90
2022-10-10T16:18:39.976Z,5.25
2022-10-10T16:21:42.474Z,4.97
2022-10-10T16:24:53.980Z,4.85
2022-10-10T16:28:05.549Z,5.43
2022-10-10T16:31:09.998Z,5.43
2022-10-10T16:34:12.862Z,5.32
2022-10-10T16:37:14.401Z,6.43
2022-10-10T16:40:16.021Z,6.03
2022-10-10T16:43:17.597Z,7.72
2022-10-10T16:46:22.684Z,7.78
2022-10-10T16:49:24.111Z,8.75
2022-10-10T16:52:25.620Z,8.68
2022-10-10T16:55:27.159Z,10.30
2022-10-10T16:58:29.560Z,7.90
2022-10-10T17:01:31.569Z,12.68
2022-10-10T17:04:33.310Z,6.30
2022-10-10T17:07:36.319Z,6.18
2022-10-10T17:10:37.828Z,7.03
2022-10-10T17:13:39.305Z,6.40
2022-10-10T17:20:02.858Z,6.35
2022-10-10T17:23:04.614Z,5.80
2022-10-10T17:26:11.917Z,6.28
2022-10-10T17:29:14.278Z,5.47
2022-10-10T17:32:15.843Z,6.57
2022-10-10T17:35:17.477Z,6.15
2022-10-10T17:38:38.329Z,7.03
2022-10-10T17:41:41.000Z,7.68
2022-10-10T17:44:49.579Z,7.60
2022-10-10T17:47:53.920Z,6.95
2022-10-10T17:50:56.470Z,6.38
2022-10-10T17:54:03.124Z,6.80
2022-10-10T17:57:04.686Z,6.82
2022-10-10T18:00:06.756Z,8.52
2022-10-10T18:03:09.191Z,7.00
2022-10-10T18:06:17.027Z,7.82
2022-10-10T18:09:18.729Z,8.38
2022-10-10T18:12:20.436Z,7.35
2022-10-10T18:15:22.484Z,7.63
2022-10-10T18:18:23.968Z,11.23
2022-10-10T18:21:25.897Z,8.10
2022-10-10T18:24:27.417Z,8.40
2022-10-10T18:27:30.191Z,9.73
2022-10-10T18:30:33.142Z,10.10
2022-10-10T18:33:34.827Z,8.88
2022-10-10T18:36:39.276Z,8.97
2022-10-10T18:39:42.224Z,6.50
2022-10-10T18:42:43.751Z,6.53
2022-10-10T18:45:45.309Z,6.50
2022-10-10T18:48:51.517Z,6.65
2022-10-10T18:51:55.558Z,6.82
2022-10-10T18:54:57.136Z,10.93
2022-10-10T18:57:59.157Z,11.73
2022-10-10T19:01:02.998Z,18.52
2022-10-10T19:04:07.488Z,10.07
2022-10-10T19:10:10.380Z,7.07
2022-10-10T19:13:12.820Z,6.93
2022-10-10T19:16:14.529Z,6.05
2022-10-10T19:19:18.129Z,7.47
2022-10-10T19:22:19.588Z,7.63
2022-10-10T19:25:21.056Z,8.88
2022-10-10T19:28:22.843Z,7.50
2022-10-10T19:31:24.329Z,7.10
2022-10-10T19:34:25.892Z,6.50
2022-10-10T19:37:27.378Z,7.25
2022-10-10T19:40:28.981Z,7.05
2022-10-10T19:43:30.456Z,7.45
2022-10-10T19:46:36.682Z,7.82
2022-10-10T19:49:38.847Z,8.18
2022-10-10T19:52:40.384Z,7.13
2022-10-10T19:55:41.967Z,8.18
2022-10-10T19:58:43.521Z,8.05
2022-10-10T20:01:45.171Z,10.00
2022-10-10T20:04:46.789Z,9.07
2022-10-10T20:07:51.685Z,9.43
2022-10-10T20:10:53.496Z,10.48
2022-10-10T20:13:55.840Z,9.63
2022-10-10T20:16:57.790Z,8.98
2022-10-10T20:19:59.785Z,8.27
2022-10-10T20:23:02.064Z,7.85
2022-10-10T20:26:08.848Z,8.43
2022-10-10T20:29:11.957Z,7.47
2022-10-10T20:32:13.457Z,8.68
2022-10-10T20:35:22.933Z,11.30
2022-10-10T20:38:24.553Z,9.02
2022-10-10T20:41:29.802Z,9.38
2022-10-10T20:44:33.765Z,8.20
2022-10-10T20:47:35.383Z,8.63
2022-10-10T20:50:38.148Z,8.32
2022-10-10T20:53:43.782Z,10.00
2022-10-10T20:56:45.420Z,10.32
2022-10-10T20:59:46.844Z,9.32
2022-10-10T21:02:49.348Z,10.90
2022-10-10T21:06:01.336Z,8.68
2022-10-10T21:09:05.999Z,8.25
2022-10-10T21:12:07.539Z,7.72
2022-10-10T21:15:09.387Z,6.78
2022-10-10T21:18:10.911Z,7.40
2022-10-10T21:21:13.138Z,7.35
2022-10-10T21:24:14.941Z,7.90
2022-10-10T21:27:16.985Z,7.43
2022-10-10T21:30:18.589Z,7.65
2022-10-10T21:33:20.165Z,7.93
2022-10-10T21:36:23.994Z,7.43
2022-10-10T21:39:25.422Z,9.05
2022-10-10T21:42:29.647Z,8.00
2022-10-10T21:45:35.502Z,7.97
2022-10-10T21:48:37.513Z,8.43
2022-10-10T21:51:42.128Z,8.07
2022-10-10T21:54:43.688Z,7.72
2022-10-10T21:57:45.219Z,7.78
2022-10-10T22:00:46.771Z,9.68
2022-10-10T22:03:50.172Z,7.07
2022-10-10T22:06:51.641Z,7.53
2022-10-10T22:09:53.117Z,7.78
2022-10-10T22:12:55.038Z,8.48
2022-10-10T22:15:57.128Z,6.88
2022-10-10T22:18:59.242Z,7.30
2022-10-10T22:22:00.744Z,7.85
2022-10-10T22:25:02.632Z,6.90
2022-10-10T22:28:06.314Z,6.40
2022-10-10T22:31:09.713Z,6.40
2022-10-10T22:34:11.709Z,7.07
2022-10-10T22:37:13.237Z,6.22
2022-10-10T22:40:14.842Z,6.15
2022-10-10T22:43:16.345Z,6.88
2022-10-10T22:46:17.959Z,6.70
2022-10-10T22:49:19.444Z,6.80
2022-10-10T22:52:20.883Z,6.90
2022-10-10T22:55:22.437Z,6.05
2022-10-10T22:58:24.428Z,6.20
2022-10-10T23:01:26.543Z,6.38
2022-10-10T23:04:28.125Z,6.55
2022-10-10T23:07:29.601Z,6.25
2022-10-10T23:10:31.033Z,6.65
2022-10-10T23:13:32.889Z,6.63
2022-10-10T23:16:36.502Z,6.00
2022-10-10T23:19:41.264Z,6.68
2022-10-10T23:22:42.778Z,6.38
2022-10-10T23:25:46.391Z,5.95
2022-10-10T23:28:50.004Z,5.57
2022-10-10T23:31:51.617Z,6.80
2022-10-10T23:34:53.102Z,6.25
2022-10-10T23:37:56.453Z,6.25
2022-10-10T23:40:57.912Z,6.60
2022-10-10T23:43:59.405Z,6.30
2022-10-10T23:47:00.888Z,6.20
2022-10-10T23:50:02.394Z,6.65
2022-10-10T23:53:04.304Z,6.65
2022-10-10T23:56:06.375Z,6.13
2022-10-10T23:59:08.191Z,7.20
